Time;durP1;ratioP1;P1;durP2;ratioP2;P2;SDS_P1;SDS_P2;PMS_P1;PMS_P2;Temp;Humidity;BMP_temperature;BMP_pressure;BME280_temperature;BME280_humidity;BME280_pressure;Samples;Min_cycle;Max_cycle;Signal;HPM_P1;HPM_P2
2022/03/22 00:00:09;;;;;;;18.77;15.77;;;;;;;;;;510048;29;1506;-73
2022/03/22 00:00:25;;;;;;;17.98;15.32;;;;;;;;;;510338;29;809;-73
2022/03/22 00:00:41;;;;;;;17.20;15.18;;;;;;;;;;511543;29;1064;-73
2022/03/22 00:00:56;;;;;;;17.83;15.33;;;;;;;;;;511528;29;822;-73
2022/03/22 00:01:12;;;;;;;18.15;15.23;;;;;;;;;;511683;28;1036;-73
2022/03/22 00:01:27;;;;;;;17.30;15.37;;;;;;;;;;513396;28;758;-73
2022/03/22 00:01:42;;;;;;;17.97;15.43;;;;;;;;;;513301;28;1283;-73
2022/03/22 00:01:57;;;;;;;18.38;15.65;;;;;;;;;;512829;28;845;-73
2022/03/22 00:02:13;;;;;;;17.57;15.30;;;;;;;;;;511261;29;1264;-73
2022/03/22 00:02:28;;;;;;;17.77;15.03;;;;;;;;;;511295;29;834;-73
2022/03/22 00:02:43;;;;;;;17.45;15.13;;;;;;;;;;511298;29;943;-73
2022/03/22 00:02:59;;;;;;;17.27;14.93;;;;;;;;;;511280;29;758;-73
2022/03/22 00:03:14;;;;;;;18.00;15.37;;;;;;;;;;511417;29;766;-73
2022/03/22 00:03:30;;;;;;;18.58;15.80;;;;;;;;;;510772;29;1453;-72
2022/03/22 00:03:46;;;;;;;19.07;15.40;;;;;;;;;;510850;29;1304;-73
2022/03/22 00:04:02;;;;;;;18.77;15.45;;;;;;;;;;510994;28;888;-73
2022/03/22 00:04:18;;;;;;;18.98;15.45;;;;;;;;;;512938;28;841;-73
2022/03/22 00:04:33;;;;;;;18.42;15.07;;;;;;;;;;509428;29;1369;-73
2022/03/22 00:04:49;;;;;;;18.73;15.50;;;;;;;;;;507314;29;1167;-74
2022/03/22 00:05:05;;;;;;;19.08;15.80;;;;;;;;;;505148;29;1398;-73
2022/03/22 00:05:20;;;;;;;18.50;15.53;;;;;;;;;;505621;29;1215;-73
2022/03/22 00:05:40;;;;;;;17.13;15.10;;;;;;;;;;505085;29;1454;-73
2022/03/22 00:05:55;;;;;;;17.75;14.93;;;;;;;;;;505333;29;789;-74
2022/03/22 00:06:10;;;;;;;18.65;15.40;;;;;;;;;;504989;29;977;-74
2022/03/22 00:06:26;;;;;;;18.97;15.30;;;;;;;;;;506169;29;956;-74
2022/03/22 00:06:41;;;;;;;19.02;15.30;;;;;;;;;;508170;29;984;-74
2022/03/22 00:06:56;;;;;;;18.67;15.60;;;;;;;;;;508086;29;1162;-73
2022/03/22 00:07:12;;;;;;;18.00;15.30;;;;;;;;;;507982;29;1218;-73
2022/03/22 00:07:27;;;;;;;18.15;15.50;;;;;;;;;;506766;28;856;-73
2022/03/22 00:07:43;;;;;;;17.97;15.37;;;;;;;;;;510043;28;974;-73
2022/03/22 00:08:00;;;;;;;18.30;14.98;;;;;;;;;;511531;29;850;-73
2022/03/22 00:08:17;;;;;;;18.13;15.40;;;;;;;;;;508871;29;1448;-73
2022/03/22 00:08:32;;;;;;;18.10;15.43;;;;;;;;;;511074;29;1534;-73
2022/03/22 00:08:48;;;;;;;18.13;15.20;;;;;;;;;;511957;28;912;-73
2022/03/22 00:09:03;;;;;;;16.98;14.95;;;;;;;;;;511177;29;1252;-73
2022/03/22 00:09:18;;;;;;;17.17;14.87;;;;;;;;;;511249;29;955;-74
2022/03/22 00:09:34;;;;;;;17.73;14.93;;;;;;;;;;511164;29;1135;-74
2022/03/22 00:09:49;;;;;;;17.47;14.60;;;;;;;;;;511238;29;1154;-73
2022/03/22 00:10:05;;;;;;;17.58;14.65;;;;;;;;;;510755;29;813;-73
2022/03/22 00:10:21;;;;;;;17.30;14.57;;;;;;;;;;509744;29;1281;-73
2022/03/22 00:10:37;;;;;;;16.33;14.20;;;;;;;;;;511121;29;858;-73
2022/03/22 00:10:52;;;;;;;16.75;14.57;;;;;;;;;;511503;29;1249;-74
2022/03/22 00:11:07;;;;;;;18.17;14.93;;;;;;;;;;509454;29;1465;-74
2022/03/22 00:11:23;;;;;;;17.70;14.63;;;;;;;;;;509279;29;975;-75
2022/03/22 00:11:38;;;;;;;17.25;14.57;;;;;;;;;;507670;29;1267;-75
2022/03/22 00:11:53;;;;;;;17.53;14.77;;;;;;;;;;509430;28;1346;-75
2022/03/22 00:12:09;;;;;;;17.97;14.90;;;;;;;;;;513492;28;759;-74
2022/03/22 00:12:24;;;;;;;18.02;14.80;;;;;;;;;;513148;28;766;-73
2022/03/22 00:12:40;;;;;;;20.17;14.90;;;;;;;;;;513303;28;1903;-73
2022/03/22 00:12:56;;;;;;;19.70;15.13;;;;;;;;;;513603;28;777;-73
2022/03/22 00:13:11;;;;;;;16.87;14.73;;;;;;;;;;515483;28;1243;-73
2022/03/22 00:13:28;;;;;;;16.83;14.30;;;;;;;;;;511206;28;1654;-73
2022/03/22 00:13:43;;;;;;;16.73;14.15;;;;;;;;;;512460;28;1371;-73
2022/03/22 00:13:59;;;;;;;16.20;14.10;;;;;;;;;;511448;28;967;-73
2022/03/22 00:14:14;;;;;;;16.80;14.02;;;;;;;;;;511401;29;759;-73
2022/03/22 00:14:29;;;;;;;16.33;14.00;;;;;;;;;;510195;29;1309;-73
2022/03/22 00:14:45;;;;;;;17.33;14.43;;;;;;;;;;511306;28;750;-73
2022/03/22 00:15:00;;;;;;;18.07;14.30;;;;;;;;;;510963;29;1440;-73
2022/03/22 00:15:16;;;;;;;16.53;13.60;;;;;;;;;;511259;28;733;-73
2022/03/22 00:15:33;;;;;;;16.88;14.05;;;;;;;;;;514277;28;796;-72
2022/03/22 00:15:50;;;;;;;15.98;13.88;;;;;;;;;;515299;28;974;-73
2022/03/22 00:16:07;;;;;;;16.38;13.73;;;;;;;;;;515502;28;1068;-73
2022/03/22 00:16:23;;;;;;;16.75;13.57;;;;;;;;;;515192;28;800;-73
2022/03/22 00:16:38;;;;;;;17.33;13.43;;;;;;;;;;512867;28;1182;-73
2022/03/22 00:16:53;;;;;;;16.90;13.63;;;;;;;;;;511439;29;1248;-73
2022/03/22 00:17:09;;;;;;;16.23;14.00;;;;;;;;;;511488;29;773;-73
2022/03/22 00:17:24;;;;;;;18.50;14.13;;;;;;;;;;511581;29;1373;-73
2022/03/22 00:17:39;;;;;;;19.03;14.13;;;;;;;;;;511568;29;917;-73
2022/03/22 00:17:54;;;;;;;17.27;14.25;;;;;;;;;;511496;29;770;-73
2022/03/22 00:18:10;;;;;;;17.13;14.20;;;;;;;;;;509541;29;1309;-73
2022/03/22 00:18:26;;;;;;;18.13;14.30;;;;;;;;;;510308;29;1394;-73
2022/03/22 00:18:41;;;;;;;17.60;13.97;;;;;;;;;;511340;28;1223;-73
2022/03/22 00:18:57;;;;;;;16.27;13.63;;;;;;;;;;513538;28;940;-73
2022/03/22 00:19:12;;;;;;;15.57;13.57;;;;;;;;;;513394;28;734;-73
2022/03/22 00:19:28;;;;;;;15.87;13.70;;;;;;;;;;513651;28;1329;-72
2022/03/22 00:19:43;;;;;;;16.77;13.80;;;;;;;;;;513470;28;1375;-73
2022/03/22 00:19:59;;;;;;;16.65;13.60;;;;;;;;;;514008;28;1460;-73
2022/03/22 00:20:15;;;;;;;15.63;13.40;;;;;;;;;;515147;28;780;-73
2022/03/22 00:20:31;;;;;;;15.60;13.35;;;;;;;;;;514562;28;789;-73
2022/03/22 00:20:47;;;;;;;16.40;13.88;;;;;;;;;;512811;28;1560;-73
2022/03/22 00:21:02;;;;;;;16.57;13.97;;;;;;;;;;513461;28;1103;-73
2022/03/22 00:21:19;;;;;;;16.60;13.60;;;;;;;;;;513647;28;948;-73
2022/03/22 00:21:37;;;;;;;15.55;13.15;;;;;;;;;;513579;28;1366;-73
2022/03/22 00:21:53;;;;;;;15.60;13.48;;;;;;;;;;513190;28;1388;-73
2022/03/22 00:22:11;;;;;;;17.53;13.90;;;;;;;;;;511682;28;1619;-73
2022/03/22 00:22:27;;;;;;;17.75;13.65;;;;;;;;;;511498;29;802;-73
2022/03/22 00:22:43;;;;;;;16.77;13.52;;;;;;;;;;512784;28;789;-73
2022/03/22 00:22:59;;;;;;;16.37;13.67;;;;;;;;;;511269;29;1158;-73
2022/03/22 00:23:14;;;;;;;16.60;13.75;;;;;;;;;;511368;28;1318;-73
2022/03/22 00:23:29;;;;;;;16.65;13.25;;;;;;;;;;511433;28;1449;-73
2022/03/22 00:23:47;;;;;;;16.07;13.60;;;;;;;;;;513270;28;975;-72
2022/03/22 00:24:02;;;;;;;16.05;13.68;;;;;;;;;;511071;28;797;-73
2022/03/22 00:24:18;;;;;;;16.25;13.68;;;;;;;;;;509693;29;1503;-73
2022/03/22 00:24:33;;;;;;;16.15;13.60;;;;;;;;;;511268;29;1198;-73
2022/03/22 00:24:48;;;;;;;16.83;13.80;;;;;;;;;;511030;28;1379;-73
2022/03/22 00:25:05;;;;;;;17.97;13.80;;;;;;;;;;511411;28;809;-73
2022/03/22 00:25:21;;;;;;;18.15;13.55;;;;;;;;;;513404;28;1063;-73
2022/03/22 00:25:36;;;;;;;17.60;13.80;;;;;;;;;;513386;28;1354;-73
2022/03/22 00:25:51;;;;;;;18.30;13.90;;;;;;;;;;513512;28;780;-73
2022/03/22 00:26:06;;;;;;;18.33;13.47;;;;;;;;;;513834;28;955;-73
2022/03/22 00:26:22;;;;;;;18.23;13.57;;;;;;;;;;515447;28;935;-73
2022/03/22 00:26:37;;;;;;;17.43;14.00;;;;;;;;;;513500;28;1652;-73
2022/03/22 00:26:52;;;;;;;16.23;13.90;;;;;;;;;;513431;28;761;-73
2022/03/22 00:27:07;;;;;;;15.67;13.80;;;;;;;;;;513297;28;991;-73
2022/03/22 00:27:23;;;;;;;16.48;13.70;;;;;;;;;;513363;28;849;-73
2022/03/22 00:27:53;;;;;;;18.27;13.97;;;;;;;;;;513548;28;685;-73
2022/03/22 00:28:09;;;;;;;17.45;13.85;;;;;;;;;;511351;29;898;-73
2022/03/22 00:28:24;;;;;;;17.03;13.83;;;;;;;;;;511508;28;2275;-73
2022/03/22 00:28:39;;;;;;;16.80;13.73;;;;;;;;;;514508;28;907;-73
2022/03/22 00:28:55;;;;;;;16.80;14.00;;;;;;;;;;514264;28;1271;-73
2022/03/22 00:29:10;;;;;;;16.80;13.80;;;;;;;;;;513125;28;758;-73
2022/03/22 00:29:25;;;;;;;17.67;13.93;;;;;;;;;;512282;28;1274;-73
2022/03/22 00:29:40;;;;;;;17.13;14.37;;;;;;;;;;513689;28;966;-73
2022/03/22 00:29:56;;;;;;;16.38;14.10;;;;;;;;;;513631;28;781;-73
2022/03/22 00:30:12;;;;;;;17.90;14.32;;;;;;;;;;511516;29;1213;-73
2022/03/22 00:30:29;;;;;;;19.80;15.07;;;;;;;;;;511859;29;1127;-73
2022/03/22 00:30:45;;;;;;;17.55;14.45;;;;;;;;;;512513;28;797;-73
2022/03/22 00:31:01;;;;;;;17.27;13.77;;;;;;;;;;513706;28;754;-73
2022/03/22 00:31:17;;;;;;;18.35;13.50;;;;;;;;;;513507;28;1300;-73
2022/03/22 00:31:32;;;;;;;16.77;13.97;;;;;;;;;;511463;29;1233;-73
2022/03/22 00:31:47;;;;;;;17.87;14.30;;;;;;;;;;509805;29;1286;-73
2022/03/22 00:32:03;;;;;;;18.33;13.98;;;;;;;;;;509910;29;915;-73
2022/03/22 00:32:18;;;;;;;17.15;13.75;;;;;;;;;;508564;29;1393;-73
2022/03/22 00:32:34;;;;;;;16.43;13.90;;;;;;;;;;507708;29;1317;-73
2022/03/22 00:32:54;;;;;;;16.57;13.90;;;;;;;;;;507613;29;1988;-73
2022/03/22 00:33:09;;;;;;;16.52;13.98;;;;;;;;;;507315;29;884;-73
2022/03/22 00:33:25;;;;;;;17.58;14.20;;;;;;;;;;507951;29;1443;-73
2022/03/22 00:33:40;;;;;;;17.53;14.20;;;;;;;;;;509776;29;793;-73
2022/03/22 00:33:55;;;;;;;17.80;14.40;;;;;;;;;;508296;29;746;-73
2022/03/22 00:34:13;;;;;;;18.40;14.32;;;;;;;;;;508454;29;900;-73
2022/03/22 00:34:28;;;;;;;15.82;13.38;;;;;;;;;;511963;28;785;-73
2022/03/22 00:34:46;;;;;;;16.48;13.40;;;;;;;;;;513057;28;1077;-73
2022/03/22 00:35:01;;;;;;;16.45;13.35;;;;;;;;;;510738;28;1233;-73
2022/03/22 00:35:18;;;;;;;16.07;13.47;;;;;;;;;;514109;28;773;-73
2022/03/22 00:35:36;;;;;;;17.58;13.73;;;;;;;;;;515874;28;820;-73
2022/03/22 00:35:51;;;;;;;17.75;13.80;;;;;;;;;;515986;28;1060;-73
2022/03/22 00:36:06;;;;;;;16.27;13.60;;;;;;;;;;516123;28;813;-73
2022/03/22 00:36:22;;;;;;;17.23;13.83;;;;;;;;;;516068;28;741;-73
2022/03/22 00:36:37;;;;;;;17.00;14.20;;;;;;;;;;515799;28;820;-73
2022/03/22 00:36:56;;;;;;;15.93;14.17;;;;;;;;;;515994;28;993;-73
2022/03/22 00:37:15;;;;;;;16.20;14.10;;;;;;;;;;515519;28;840;-73
2022/03/22 00:37:30;;;;;;;17.77;13.95;;;;;;;;;;515298;28;1289;-73
2022/03/22 00:37:49;;;;;;;19.02;14.18;;;;;;;;;;513823;28;1189;-73
2022/03/22 00:38:08;;;;;;;16.85;14.23;;;;;;;;;;511486;29;1505;-73
2022/03/22 00:38:23;;;;;;;16.73;14.07;;;;;;;;;;511251;29;1547;-73
2022/03/22 00:38:39;;;;;;;16.80;13.70;;;;;;;;;;511900;29;959;-73
2022/03/22 00:38:54;;;;;;;17.63;14.17;;;;;;;;;;511949;29;762;-73
2022/03/22 00:39:09;;;;;;;17.65;14.38;;;;;;;;;;511908;29;816;-73
2022/03/22 00:39:25;;;;;;;17.57;14.37;;;;;;;;;;510057;29;1290;-73
2022/03/22 00:39:45;;;;;;;17.55;14.35;;;;;;;;;;509618;28;869;-73
2022/03/22 00:40:02;;;;;;;17.25;14.00;;;;;;;;;;511540;29;1282;-73
2022/03/22 00:40:18;;;;;;;16.95;14.20;;;;;;;;;;509224;29;1404;-73
2022/03/22 00:40:33;;;;;;;17.75;14.18;;;;;;;;;;510942;29;812;-73
2022/03/22 00:40:48;;;;;;;18.60;13.93;;;;;;;;;;511693;29;916;-73
2022/03/22 00:41:04;;;;;;;17.70;13.70;;;;;;;;;;511726;29;900;-73
2022/03/22 00:41:20;;;;;;;18.67;13.82;;;;;;;;;;513057;28;825;-73
2022/03/22 00:41:35;;;;;;;19.83;14.10;;;;;;;;;;513313;28;754;-73
2022/03/22 00:41:52;;;;;;;18.27;13.80;;;;;;;;;;512482;28;1264;-73
2022/03/22 00:42:07;;;;;;;18.17;13.80;;;;;;;;;;512204;28;1253;-73
2022/03/22 00:42:23;;;;;;;18.03;14.07;;;;;;;;;;513932;28;836;-73
2022/03/22 00:42:38;;;;;;;17.92;14.50;;;;;;;;;;514031;28;994;-73
2022/03/22 00:42:54;;;;;;;19.30;14.33;;;;;;;;;;511903;29;1202;-73
2022/03/22 00:43:10;;;;;;;19.20;14.40;;;;;;;;;;511652;29;1174;-73
2022/03/22 00:43:25;;;;;;;17.75;14.70;;;;;;;;;;510546;29;1394;-73
2022/03/22 00:43:40;;;;;;;16.80;14.40;;;;;;;;;;510345;29;816;-73
2022/03/22 00:43:56;;;;;;;18.65;14.80;;;;;;;;;;509240;29;1199;-74
2022/03/22 00:44:11;;;;;;;18.67;14.70;;;;;;;;;;511800;29;892;-73
2022/03/22 00:44:26;;;;;;;16.57;13.97;;;;;;;;;;511128;29;789;-73
2022/03/22 00:44:41;;;;;;;15.80;14.10;;;;;;;;;;508132;29;1361;-73
2022/03/22 00:44:57;;;;;;;15.85;13.85;;;;;;;;;;509989;29;1157;-73
2022/03/22 00:45:16;;;;;;;16.47;13.90;;;;;;;;;;507586;29;1379;-73
2022/03/22 00:45:32;;;;;;;17.60;14.10;;;;;;;;;;510909;29;1285;-73
2022/03/22 00:45:48;;;;;;;17.58;14.20;;;;;;;;;;511589;29;809;-73
2022/03/22 00:46:03;;;;;;;17.37;14.00;;;;;;;;;;511842;29;980;-73
2022/03/22 00:46:18;;;;;;;18.23;14.03;;;;;;;;;;511987;29;949;-73
2022/03/22 00:46:34;;;;;;;17.88;14.02;;;;;;;;;;511943;29;791;-73
2022/03/22 00:46:50;;;;;;;17.42;13.93;;;;;;;;;;511986;29;806;-73
2022/03/22 00:47:07;;;;;;;17.67;14.20;;;;;;;;;;513069;28;896;-73
2022/03/22 00:47:23;;;;;;;16.17;14.05;;;;;;;;;;513800;28;781;-73
2022/03/22 00:47:38;;;;;;;17.40;14.23;;;;;;;;;;513736;28;1295;-73
2022/03/22 00:47:55;;;;;;;19.77;14.50;;;;;;;;;;513482;28;880;-73
2022/03/22 00:48:14;;;;;;;18.88;14.10;;;;;;;;;;513896;28;1223;-73
2022/03/22 00:48:29;;;;;;;17.08;13.73;;;;;;;;;;514934;28;1459;-73
2022/03/22 00:48:47;;;;;;;17.52;13.90;;;;;;;;;;515499;28;1311;-73
2022/03/22 00:49:03;;;;;;;16.65;14.10;;;;;;;;;;514343;28;1581;-73
2022/03/22 00:49:18;;;;;;;16.25;14.40;;;;;;;;;;513662;28;1264;-73
2022/03/22 00:49:36;;;;;;;16.57;14.23;;;;;;;;;;512496;28;825;-73
2022/03/22 00:49:51;;;;;;;16.92;13.85;;;;;;;;;;511062;29;1374;-73
2022/03/22 00:50:06;;;;;;;17.43;14.10;;;;;;;;;;509022;29;1352;-73
2022/03/22 00:50:26;;;;;;;17.80;14.02;;;;;;;;;;509778;29;915;-73
2022/03/22 00:50:45;;;;;;;17.50;14.13;;;;;;;;;;507767;29;1262;-73
2022/03/22 00:51:00;;;;;;;17.80;14.57;;;;;;;;;;509806;29;1407;-73
2022/03/22 00:51:15;;;;;;;17.80;14.48;;;;;;;;;;511277;29;1004;-73
2022/03/22 00:51:31;;;;;;;17.33;14.03;;;;;;;;;;511757;29;750;-73
2022/03/22 00:51:47;;;;;;;17.93;14.20;;;;;;;;;;513046;28;1154;-73
2022/03/22 00:52:04;;;;;;;18.10;14.75;;;;;;;;;;513538;28;860;-73
2022/03/22 00:52:20;;;;;;;17.40;14.77;;;;;;;;;;511475;29;1356;-73
2022/03/22 00:52:36;;;;;;;17.10;13.93;;;;;;;;;;511830;29;924;-73
2022/03/22 00:52:51;;;;;;;16.88;13.77;;;;;;;;;;511719;29;1930;-73
2022/03/22 00:53:08;;;;;;;16.20;14.00;;;;;;;;;;509896;29;1325;-73
2022/03/22 00:53:23;;;;;;;15.57;13.70;;;;;;;;;;508278;29;1552;-73
2022/03/22 00:53:39;;;;;;;15.57;13.43;;;;;;;;;;509795;29;1050;-73
2022/03/22 00:53:54;;;;;;;16.77;13.85;;;;;;;;;;511612;29;750;-73
2022/03/22 00:54:10;;;;;;;16.87;14.13;;;;;;;;;;511923;28;805;-73
2022/03/22 00:54:25;;;;;;;16.63;14.33;;;;;;;;;;513085;28;762;-73
2022/03/22 00:54:40;;;;;;;18.25;14.68;;;;;;;;;;511936;29;758;-73
2022/03/22 00:54:55;;;;;;;18.67;14.37;;;;;;;;;;512261;28;872;-73
2022/03/22 00:55:14;;;;;;;17.97;14.20;;;;;;;;;;513479;28;793;-73
2022/03/22 00:55:29;;;;;;;18.17;14.50;;;;;;;;;;515688;28;1414;-72
2022/03/22 00:55:46;;;;;;;17.30;14.10;;;;;;;;;;513973;28;1426;-73
2022/03/22 00:56:01;;;;;;;16.23;14.25;;;;;;;;;;513758;28;825;-73
2022/03/22 00:56:17;;;;;;;16.43;14.30;;;;;;;;;;511552;29;1376;-73
2022/03/22 00:56:33;;;;;;;18.33;14.10;;;;;;;;;;511659;29;1276;-73
2022/03/22 00:56:48;;;;;;;17.13;13.90;;;;;;;;;;509672;29;1203;-73
2022/03/22 00:57:04;;;;;;;16.03;13.67;;;;;;;;;;507957;29;1219;-73
2022/03/22 00:57:19;;;;;;;17.38;14.00;;;;;;;;;;507804;29;853;-73
2022/03/22 00:57:36;;;;;;;17.93;14.10;;;;;;;;;;506005;29;1222;-73
2022/03/22 00:57:53;;;;;;;18.27;14.20;;;;;;;;;;505907;29;1400;-73
2022/03/22 00:58:08;;;;;;;17.10;13.63;;;;;;;;;;506252;29;1051;-73
2022/03/22 00:58:23;;;;;;;18.30;13.90;;;;;;;;;;508042;29;1484;-73
2022/03/22 00:58:39;;;;;;;19.47;14.37;;;;;;;;;;510717;29;777;-72
2022/03/22 01:00:06;;;;;;;17.65;14.50;;;;;;;;;;513486;28;659;-73
2022/03/22 01:00:27;;;;;;;17.58;14.20;;;;;;;;;;513593;28;1229;-73
2022/03/22 01:00:42;;;;;;;18.00;13.80;;;;;;;;;;513932;28;866;-73
2022/03/22 01:00:59;;;;;;;17.17;13.77;;;;;;;;;;514002;28;801;-73
2022/03/22 01:01:15;;;;;;;16.05;13.50;;;;;;;;;;513981;28;860;-73
2022/03/22 01:01:30;;;;;;;16.47;13.50;;;;;;;;;;513961;28;876;-73
2022/03/22 01:01:45;;;;;;;18.17;13.90;;;;;;;;;;513277;28;797;-73
2022/03/22 01:02:00;;;;;;;18.03;14.20;;;;;;;;;;513848;28;754;-73
2022/03/22 01:02:16;;;;;;;18.98;14.52;;;;;;;;;;513896;28;754;-73
2022/03/22 01:02:36;;;;;;;18.83;14.73;;;;;;;;;;513496;28;946;-73
2022/03/22 01:02:58;;;;;;;17.98;15.00;;;;;;;;;;513720;28;1366;-73
2022/03/22 01:03:14;;;;;;;18.50;14.57;;;;;;;;;;513671;28;884;-72
2022/03/22 01:03:29;;;;;;;17.80;14.18;;;;;;;;;;514156;28;1365;-73
2022/03/22 01:03:45;;;;;;;16.40;14.05;;;;;;;;;;513724;28;1327;-73
2022/03/22 01:04:00;;;;;;;17.30;14.23;;;;;;;;;;514946;28;769;-73
2022/03/22 01:04:15;;;;;;;18.67;13.70;;;;;;;;;;513318;28;1272;-73
2022/03/22 01:04:31;;;;;;;18.88;13.65;;;;;;;;;;511212;29;1198;-73
2022/03/22 01:04:46;;;;;;;16.77;13.80;;;;;;;;;;512731;28;825;-73
2022/03/22 01:05:07;;;;;;;16.30;13.90;;;;;;;;;;513559;28;899;-73
2022/03/22 01:05:23;;;;;;;18.50;14.43;;;;;;;;;;511745;29;1383;-73
2022/03/22 01:05:39;;;;;;;18.75;14.30;;;;;;;;;;509831;29;817;-73
2022/03/22 01:05:55;;;;;;;19.08;14.05;;;;;;;;;;509866;29;941;-73
2022/03/22 01:06:11;;;;;;;18.65;13.90;;;;;;;;;;511135;29;972;-73
2022/03/22 01:06:26;;;;;;;19.67;14.07;;;;;;;;;;512751;28;1207;-73
2022/03/22 01:06:41;;;;;;;19.52;14.02;;;;;;;;;;513568;28;742;-73
2022/03/22 01:06:57;;;;;;;17.73;13.80;;;;;;;;;;511744;29;1179;-73
2022/03/22 01:07:12;;;;;;;16.53;13.57;;;;;;;;;;512248;28;783;-73
2022/03/22 01:07:28;;;;;;;16.75;13.75;;;;;;;;;;513789;28;734;-73
2022/03/22 01:07:45;;;;;;;16.93;13.97;;;;;;;;;;514005;28;757;-73
2022/03/22 01:08:05;;;;;;;17.17;14.13;;;;;;;;;;511844;28;1336;-73
2022/03/22 01:08:21;;;;;;;18.25;14.10;;;;;;;;;;512119;28;1423;-73
2022/03/22 01:08:37;;;;;;;19.10;14.60;;;;;;;;;;510936;29;1254;-72
2022/03/22 01:08:54;;;;;;;17.83;14.32;;;;;;;;;;511651;28;861;-73
2022/03/22 01:09:10;;;;;;;17.30;14.00;;;;;;;;;;513718;28;1110;-73
2022/03/22 01:09:27;;;;;;;16.70;13.93;;;;;;;;;;513881;28;810;-73
2022/03/22 01:09:42;;;;;;;17.55;13.95;;;;;;;;;;513881;28;825;-73
2022/03/22 01:09:57;;;;;;;18.43;14.00;;;;;;;;;;515180;28;841;-73
2022/03/22 01:10:13;;;;;;;18.17;14.23;;;;;;;;;;513108;28;1468;-73
2022/03/22 01:10:30;;;;;;;17.17;13.80;;;;;;;;;;514751;28;936;-73
2022/03/22 01:10:52;;;;;;;17.65;13.93;;;;;;;;;;515253;28;1220;-73
2022/03/22 01:11:07;;;;;;;17.60;14.20;;;;;;;;;;513585;28;1559;-73
2022/03/22 01:11:22;;;;;;;16.80;13.63;;;;;;;;;;513636;28;931;-73
2022/03/22 01:11:39;;;;;;;15.97;13.53;;;;;;;;;;510467;28;1256;-73
2022/03/22 01:11:55;;;;;;;15.82;13.75;;;;;;;;;;508385;28;1467;-73
2022/03/22 01:12:10;;;;;;;16.40;13.85;;;;;;;;;;509078;29;1715;-73
2022/03/22 01:12:25;;;;;;;15.87;13.47;;;;;;;;;;509565;29;916;-73
2022/03/22 01:12:42;;;;;;;17.97;13.67;;;;;;;;;;509347;29;1993;-73
2022/03/22 01:12:58;;;;;;;19.27;14.45;;;;;;;;;;509390;29;888;-73
2022/03/22 01:13:13;;;;;;;18.92;14.48;;;;;;;;;;509449;29;845;-73
2022/03/22 01:13:28;;;;;;;17.63;14.50;;;;;;;;;;510653;28;1599;-73
2022/03/22 01:13:43;;;;;;;16.37;14.27;;;;;;;;;;512010;28;824;-72
2022/03/22 01:13:59;;;;;;;16.33;13.75;;;;;;;;;;512721;28;937;-73
2022/03/22 01:14:14;;;;;;;16.13;13.63;;;;;;;;;;513715;28;730;-73
2022/03/22 01:14:29;;;;;;;16.47;13.93;;;;;;;;;;512367;28;991;-73
2022/03/22 01:14:45;;;;;;;16.90;14.02;;;;;;;;;;511567;29;956;-73
2022/03/22 01:15:01;;;;;;;16.47;13.70;;;;;;;;;;511213;29;1303;-73
2022/03/22 01:15:22;;;;;;;17.45;13.48;;;;;;;;;;511400;29;1176;-73
2022/03/22 01:15:40;;;;;;;16.48;13.35;;;;;;;;;;510880;29;1181;-73
2022/03/22 01:15:55;;;;;;;18.05;13.88;;;;;;;;;;507716;29;1243;-73
2022/03/22 01:16:10;;;;;;;18.33;14.27;;;;;;;;;;507879;29;766;-73
2022/03/22 01:16:26;;;;;;;18.02;14.50;;;;;;;;;;507369;29;845;-72
2022/03/22 01:16:41;;;;;;;17.73;14.13;;;;;;;;;;507591;29;782;-73
2022/03/22 01:16:56;;;;;;;17.17;13.87;;;;;;;;;;508540;29;798;-73
2022/03/22 01:17:11;;;;;;;17.30;13.38;;;;;;;;;;509648;29;841;-73
2022/03/22 01:17:27;;;;;;;17.83;13.30;;;;;;;;;;510056;29;611;-73
2022/03/22 01:17:43;;;;;;;19.67;14.27;;;;;;;;;;511652;29;809;-73
2022/03/22 01:18:05;;;;;;;20.02;14.52;;;;;;;;;;511800;28;876;-73
2022/03/22 01:18:23;;;;;;;17.52;14.13;;;;;;;;;;511642;28;1460;-73
2022/03/22 01:18:39;;;;;;;16.83;13.85;;;;;;;;;;512833;28;805;-73
2022/03/22 01:18:54;;;;;;;16.77;13.87;;;;;;;;;;512429;28;1281;-73
2022/03/22 01:19:09;;;;;;;16.73;14.20;;;;;;;;;;511268;29;1297;-73
2022/03/22 01:19:24;;;;;;;17.70;14.18;;;;;;;;;;511570;29;1100;-73
2022/03/22 01:19:40;;;;;;;16.80;13.67;;;;;;;;;;511713;29;821;-73
2022/03/22 01:19:56;;;;;;;15.87;13.67;;;;;;;;;;509824;29;1300;-73
2022/03/22 01:20:12;;;;;;;17.27;14.20;;;;;;;;;;509284;29;798;-73
2022/03/22 01:20:27;;;;;;;17.40;13.95;;;;;;;;;;509813;29;956;-73
2022/03/22 01:20:46;;;;;;;17.57;13.83;;;;;;;;;;510049;29;885;-73
2022/03/22 01:21:02;;;;;;;17.20;13.88;;;;;;;;;;511484;29;911;-73
2022/03/22 01:21:17;;;;;;;16.83;13.90;;;;;;;;;;511337;29;877;-73
2022/03/22 01:21:32;;;;;;;18.65;14.43;;;;;;;;;;511460;29;980;-73
2022/03/22 01:21:49;;;;;;;19.27;14.50;;;;;;;;;;511618;29;833;-73
2022/03/22 01:22:05;;;;;;;18.45;14.35;;;;;;;;;;511713;28;817;-73
2022/03/22 01:22:21;;;;;;;18.80;14.73;;;;;;;;;;511633;29;1001;-73
2022/03/22 01:22:39;;;;;;;18.55;14.40;;;;;;;;;;511804;29;754;-73
2022/03/22 01:22:54;;;;;;;18.33;14.00;;;;;;;;;;511769;28;971;-73
2022/03/22 01:23:10;;;;;;;18.42;14.20;;;;;;;;;;511077;29;1185;-73
2022/03/22 01:23:26;;;;;;;18.98;14.70;;;;;;;;;;511116;28;1539;-73
2022/03/22 01:23:41;;;;;;;19.65;14.52;;;;;;;;;;513039;28;801;-72
2022/03/22 01:23:58;;;;;;;18.93;14.23;;;;;;;;;;512406;28;805;-73
2022/03/22 01:24:14;;;;;;;19.70;14.57;;;;;;;;;;511783;29;828;-73
2022/03/22 01:24:29;;;;;;;20.10;14.38;;;;;;;;;;513027;28;944;-73
2022/03/22 01:24:45;;;;;;;18.47;14.13;;;;;;;;;;513701;28;794;-73
2022/03/22 01:25:00;;;;;;;17.73;14.07;;;;;;;;;;513596;28;817;-73
2022/03/22 01:25:18;;;;;;;18.23;14.07;;;;;;;;;;513037;28;738;-73
2022/03/22 01:25:35;;;;;;;19.13;14.55;;;;;;;;;;512367;28;844;-73
2022/03/22 01:25:51;;;;;;;19.27;14.68;;;;;;;;;;511377;29;1313;-73
2022/03/22 01:26:06;;;;;;;19.60;14.57;;;;;;;;;;511559;29;786;-73
2022/03/22 01:26:22;;;;;;;19.30;14.53;;;;;;;;;;511776;29;848;-73
2022/03/22 01:26:37;;;;;;;18.05;14.18;;;;;;;;;;511536;29;991;-73
2022/03/22 01:26:52;;;;;;;18.23;14.13;;;;;;;;;;511762;29;920;-73
2022/03/22 01:27:08;;;;;;;18.30;14.17;;;;;;;;;;511633;29;930;-73
2022/03/22 01:27:23;;;;;;;17.20;14.20;;;;;;;;;;511109;28;1459;-73
2022/03/22 01:27:39;;;;;;;16.93;14.40;;;;;;;;;;512537;28;1407;-73
2022/03/22 01:27:55;;;;;;;17.48;14.40;;;;;;;;;;513389;28;1404;-73
2022/03/22 01:28:12;;;;;;;17.20;14.27;;;;;;;;;;513469;28;1261;-73
2022/03/22 01:28:28;;;;;;;16.88;14.20;;;;;;;;;;511992;28;2853;-73
2022/03/22 01:28:43;;;;;;;16.77;14.03;;;;;;;;;;513061;28;1026;-73
2022/03/22 01:28:58;;;;;;;17.80;14.23;;;;;;;;;;511421;29;1142;-73
2022/03/22 01:29:14;;;;;;;17.40;13.77;;;;;;;;;;509584;29;1295;-73
2022/03/22 01:29:29;;;;;;;17.80;14.00;;;;;;;;;;509249;29;734;-73
2022/03/22 01:29:44;;;;;;;19.40;14.70;;;;;;;;;;509706;29;925;-73
2022/03/22 01:30:00;;;;;;;17.93;14.03;;;;;;;;;;509508;29;908;-73
2022/03/22 01:30:19;;;;;;;17.33;13.90;;;;;;;;;;509222;29;770;-73
2022/03/22 01:30:36;;;;;;;19.58;14.20;;;;;;;;;;511101;29;805;-73
2022/03/22 01:30:51;;;;;;;18.05;14.00;;;;;;;;;;512732;28;774;-73
2022/03/22 01:31:06;;;;;;;17.33;14.23;;;;;;;;;;512843;28;895;-73
2022/03/22 01:31:22;;;;;;;17.85;14.15;;;;;;;;;;511655;28;833;-73
2022/03/22 01:31:37;;;;;;;17.30;14.13;;;;;;;;;;510939;29;1212;-73
2022/03/22 01:31:53;;;;;;;16.95;14.50;;;;;;;;;;511528;29;742;-73
2022/03/22 01:32:08;;;;;;;17.77;14.37;;;;;;;;;;511554;29;782;-72
2022/03/22 01:32:24;;;;;;;18.27;14.13;;;;;;;;;;509482;29;1198;-73
2022/03/22 01:32:39;;;;;;;18.27;14.00;;;;;;;;;;509434;29;781;-73
2022/03/22 01:32:55;;;;;;;17.35;14.07;;;;;;;;;;509699;29;781;-73
2022/03/22 01:33:12;;;;;;;17.60;14.13;;;;;;;;;;509750;29;825;-73
2022/03/22 01:33:27;;;;;;;18.92;14.48;;;;;;;;;;510518;28;1560;-73
2022/03/22 01:33:42;;;;;;;18.53;14.50;;;;;;;;;;509791;29;1131;-73
2022/03/22 01:33:58;;;;;;;17.50;13.93;;;;;;;;;;508495;29;1087;-73
2022/03/22 01:34:13;;;;;;;18.20;13.93;;;;;;;;;;510137;29;1117;-73
2022/03/22 01:34:29;;;;;;;17.23;13.97;;;;;;;;;;508562;29;1297;-72
2022/03/22 01:34:44;;;;;;;16.37;13.70;;;;;;;;;;507567;29;1505;-73
2022/03/22 01:34:59;;;;;;;17.40;13.80;;;;;;;;;;507687;29;822;-72
2022/03/22 01:35:16;;;;;;;17.13;13.95;;;;;;;;;;507294;29;769;-73
2022/03/22 01:35:32;;;;;;;16.70;14.10;;;;;;;;;;508995;29;901;-73
2022/03/22 01:35:47;;;;;;;16.65;13.98;;;;;;;;;;511074;29;1462;-73
2022/03/22 01:36:03;;;;;;;16.97;14.10;;;;;;;;;;511774;29;797;-73
2022/03/22 01:36:18;;;;;;;17.03;14.30;;;;;;;;;;512111;28;734;-73
2022/03/22 01:36:33;;;;;;;18.40;14.30;;;;;;;;;;511510;29;1162;-73
2022/03/22 01:36:48;;;;;;;18.20;14.05;;;;;;;;;;511575;29;786;-73
2022/03/22 01:37:04;;;;;;;16.77;13.87;;;;;;;;;;509654;29;1171;-73
2022/03/22 01:37:20;;;;;;;17.25;14.40;;;;;;;;;;509791;29;850;-72
2022/03/22 01:37:37;;;;;;;17.30;14.53;;;;;;;;;;507827;29;1196;-72
2022/03/22 01:37:54;;;;;;;17.75;14.18;;;;;;;;;;507234;29;1321;-73